Time;durP1;ratioP1;P1;durP2;ratioP2;P2;SDS_P1;SDS_P2;PMS_P1;PMS_P2;Temp;Humidity;BMP_temperature;BMP_pressure;BME280_temperature;BME280_humidity;BME280_pressure;Samples;Min_cycle;Max_cycle;Signal;HPM_P1;HPM_P2
2021/09/28 00:01:36;;;;;;;3.07;0.90;;;18.00;99.90;;;;;;5045318;28;20487;-81
2021/09/28 00:04:03;;;;;;;3.40;0.97;;;17.80;99.90;;;;;;5037144;28;20471;-81
2021/09/28 00:06:31;;;;;;;2.70;1.10;;;17.90;99.90;;;;;;5042802;28;20514;-81
2021/09/28 00:08:58;;;;;;;3.83;1.10;;;17.80;99.90;;;;;;5045229;28;20478;-81
2021/09/28 00:11:25;;;;;;;7.40;1.00;;;17.70;99.90;;;;;;5044919;28;20531;-82
2021/09/28 00:13:52;;;;;;;2.40;0.73;;;17.70;99.90;;;;;;5038927;28;20559;-82
2021/09/28 00:16:19;;;;;;;2.70;0.97;;;17.60;99.90;;;;;;5045568;28;20535;-82
2021/09/28 00:18:46;;;;;;;3.67;0.73;;;17.60;99.90;;;;;;5046017;28;20436;-82
2021/09/28 00:21:13;;;;;;;2.70;0.70;;;17.50;99.90;;;;;;5054778;28;20578;-82
2021/09/28 00:23:41;;;;;;;2.60;1.03;;;17.70;99.90;;;;;;5034044;28;20619;-82
2021/09/28 00:26:08;;;;;;;2.40;0.70;;;17.40;99.90;;;;;;5027960;28;20524;-82
2021/09/28 00:28:34;;;;;;;4.40;0.97;;;17.50;99.90;;;;;;5044763;28;20497;-82
2021/09/28 00:31:01;;;;;;;3.13;1.00;;;17.40;99.90;;;;;;5043746;28;20535;-82
2021/09/28 00:33:28;;;;;;;2.60;0.70;;;17.40;99.90;;;;;;5044982;28;20451;-82
2021/09/28 00:35:55;;;;;;;3.40;1.20;;;17.30;99.90;;;;;;5044172;28;20510;-81
2021/09/28 00:38:22;;;;;;;4.00;1.33;;;17.40;99.90;;;;;;5032847;28;20950;-81
2021/09/28 00:40:50;;;;;;;5.70;1.77;;;16.90;99.90;;;;;;5024929;28;20466;-81
2021/09/28 00:43:17;;;;;;;4.40;1.30;;;16.80;99.90;;;;;;5024756;28;20494;-82
2021/09/28 00:45:44;;;;;;;3.47;1.00;;;16.70;99.90;;;;;;5023928;28;20460;-82
2021/09/28 00:48:11;;;;;;;4.53;1.17;;;16.70;99.90;;;;;;5025074;28;20440;-82
2021/09/28 00:50:38;;;;;;;5.20;1.37;;;16.50;99.90;;;;;;5024390;28;20481;-82
2021/09/28 00:53:05;;;;;;;2.87;1.07;;;16.30;99.90;;;;;;5024622;28;20804;-82
2021/09/28 00:55:32;;;;;;;3.90;1.13;;;16.10;99.90;;;;;;5029199;28;20515;-82
2021/09/28 00:58:02;;;;;;;5.17;1.47;;;16.20;99.90;;;;;;5044040;28;20440;-82
2021/09/28 01:00:30;;;;;;;3.73;1.20;;;16.30;99.90;;;;;;5044160;28;20482;-82
2021/09/28 01:02:58;;;;;;;5.23;2.03;;;16.20;99.90;;;;;;5042714;28;20517;-82
2021/09/28 01:05:25;;;;;;;5.40;1.47;;;16.10;99.90;;;;;;5025053;28;20816;-82
2021/09/28 01:07:52;;;;;;;4.77;1.40;;;16.20;99.90;;;;;;5040517;28;20542;-82
2021/09/28 01:10:19;;;;;;;6.60;1.63;;;16.10;99.90;;;;;;5032870;28;20539;-82
2021/09/28 01:12:45;;;;;;;4.87;1.60;;;15.90;99.90;;;;;;5034286;28;20436;-82
2021/09/28 01:15:14;;;;;;;7.33;1.60;;;15.90;99.90;;;;;;5044184;28;20451;-82
2021/09/28 01:17:41;;;;;;;3.13;1.00;;;16.00;99.90;;;;;;5043370;28;20535;-82
2021/09/28 01:20:08;;;;;;;3.43;0.83;;;16.00;99.90;;;;;;5039947;28;20815;-82
2021/09/28 01:22:37;;;;;;;5.77;1.10;;;16.10;99.90;;;;;;5037425;28;20424;-81
2021/09/28 01:25:04;;;;;;;5.50;1.30;;;16.20;99.90;;;;;;5039478;28;20413;-82
2021/09/28 01:27:36;;;;;;;4.00;1.00;;;16.00;99.90;;;;;;5046539;28;20483;-82
2021/09/28 01:30:04;;;;;;;4.10;1.20;;;15.90;99.90;;;;;;5046670;28;20798;-82
2021/09/28 01:32:31;;;;;;;5.43;1.30;;;16.00;99.90;;;;;;5047642;28;20510;-82
2021/09/28 01:34:57;;;;;;;3.97;1.20;;;16.20;99.90;;;;;;5044752;28;20427;-83
2021/09/28 01:37:24;;;;;;;3.47;1.10;;;16.00;99.90;;;;;;5043547;28;20484;-82
2021/09/28 01:39:54;;;;;;;3.93;1.50;;;16.00;99.90;;;;;;5044486;28;20473;-82
2021/09/28 01:42:21;;;;;;;6.90;1.20;;;16.10;99.90;;;;;;5039577;28;20496;-82
2021/09/28 01:44:48;;;;;;;3.13;0.97;;;16.10;99.90;;;;;;5044445;28;20557;-82
2021/09/28 01:47:15;;;;;;;3.33;1.37;;;16.30;99.90;;;;;;5043565;28;20536;-82
2021/09/28 01:49:41;;;;;;;3.83;1.20;;;16.20;99.90;;;;;;5043258;28;20487;-82
2021/09/28 01:52:08;;;;;;;4.70;1.00;;;16.40;99.90;;;;;;5044176;28;20442;-82
2021/09/28 01:54:35;;;;;;;5.13;0.90;;;16.30;99.90;;;;;;5033667;28;20513;-82
2021/09/28 01:57:04;;;;;;;3.73;1.03;;;16.20;99.90;;;;;;5036231;28;20472;-81
2021/09/28 01:59:31;;;;;;;5.33;1.17;;;16.10;99.90;;;;;;5025306;28;20475;-82
2021/09/28 02:01:58;;;;;;;4.33;1.30;;;16.20;99.90;;;;;;5034362;28;20517;-82
2021/09/28 02:04:25;;;;;;;7.10;1.53;;;16.00;99.90;;;;;;5032838;28;20436;-82
2021/09/28 02:06:52;;;;;;;6.20;1.53;;;16.00;99.90;;;;;;5044613;28;20501;-81
2021/09/28 02:09:18;;;;;;;3.67;1.30;;;15.90;99.90;;;;;;5048140;28;20474;-82
2021/09/28 02:11:45;;;;;;;3.70;1.10;;;16.00;99.90;;;;;;5046137;28;20524;-82
2021/09/28 02:14:14;;;;;;;3.50;1.10;;;16.00;99.90;;;;;;5037362;28;20437;-82
2021/09/28 02:16:44;;;;;;;3.90;1.03;;;16.20;99.90;;;;;;5040203;28;20456;-82
2021/09/28 02:19:11;;;;;;;3.13;1.00;;;16.00;99.90;;;;;;5047361;28;20869;-82
2021/09/28 02:21:38;;;;;;;3.07;1.17;;;15.90;99.90;;;;;;5047513;28;20464;-82
2021/09/28 02:24:06;;;;;;;5.53;1.30;;;15.90;99.90;;;;;;5046565;28;20463;-81
2021/09/28 02:26:33;;;;;;;5.57;1.40;;;15.80;99.90;;;;;;5046084;28;20435;-82
2021/09/28 02:28:59;;;;;;;4.30;1.13;;;15.90;99.90;;;;;;5029583;28;20529;-82
2021/09/28 02:31:28;;;;;;;8.40;1.10;;;16.20;99.90;;;;;;5036384;28;20461;-82
2021/09/28 02:33:55;;;;;;;3.63;1.47;;;16.20;99.90;;;;;;5032610;28;20450;-82
2021/09/28 02:36:22;;;;;;;6.00;1.33;;;16.10;99.90;;;;;;5037278;28;20809;-82
2021/09/28 02:38:49;;;;;;;6.53;1.70;;;15.90;99.90;;;;;;5047282;28;20501;-82
2021/09/28 02:41:16;;;;;;;7.13;1.33;;;15.90;99.90;;;;;;5055792;28;20484;-82
2021/09/28 02:43:42;;;;;;;6.20;1.27;;;15.90;99.90;;;;;;5058142;28;20505;-82
2021/09/28 02:46:09;;;;;;;4.00;1.23;;;15.90;99.90;;;;;;5046349;28;20465;-81
2021/09/28 02:48:37;;;;;;;3.60;1.17;;;15.80;99.90;;;;;;5039364;28;20430;-82
2021/09/28 02:51:04;;;;;;;6.83;1.40;;;15.80;99.90;;;;;;5028359;28;20498;-82
2021/09/28 02:53:31;;;;;;;4.03;1.27;;;15.80;99.90;;;;;;5028220;28;20489;-82
2021/09/28 02:55:58;;;;;;;3.57;1.00;;;15.70;99.90;;;;;;5046178;28;20856;-81
2021/09/28 02:58:25;;;;;;;5.03;1.43;;;15.70;99.90;;;;;;5046455;28;20480;-82
2021/09/28 03:00:52;;;;;;;4.60;1.40;;;15.70;99.90;;;;;;5046288;28;20486;-81
2021/09/28 03:03:19;;;;;;;5.97;1.37;;;15.70;99.90;;;;;;5043599;28;20496;-83
2021/09/28 03:05:48;;;;;;;7.50;1.70;;;15.80;99.90;;;;;;5030764;28;20529;-82
2021/09/28 03:08:15;;;;;;;5.20;1.40;;;15.80;99.90;;;;;;5046927;28;20488;-82
2021/09/28 03:10:43;;;;;;;3.90;1.97;;;15.80;99.90;;;;;;5053417;28;20569;-82
2021/09/28 03:13:10;;;;;;;4.97;1.43;;;15.70;99.90;;;;;;5047301;28;20514;-82
2021/09/28 03:15:37;;;;;;;4.73;1.47;;;15.70;99.90;;;;;;5046658;28;20459;-82
2021/09/28 03:18:04;;;;;;;3.73;1.47;;;15.60;99.90;;;;;;5030494;28;20497;-81
2021/09/28 03:20:31;;;;;;;3.67;1.50;;;15.60;99.90;;;;;;5046749;28;20491;-82
2021/09/28 03:23:00;;;;;;;9.27;1.80;;;15.50;99.90;;;;;;5046512;28;20493;-82
2021/09/28 03:25:26;;;;;;;4.43;1.60;;;15.50;99.90;;;;;;5046706;28;20879;-82
2021/09/28 03:27:53;;;;;;;3.67;1.50;;;15.50;99.90;;;;;;5045895;28;20557;-82
2021/09/28 03:30:20;;;;;;;4.23;1.70;;;15.40;99.90;;;;;;5045688;28;20478;-82
2021/09/28 03:32:47;;;;;;;4.00;1.60;;;15.40;99.90;;;;;;5038282;28;20481;-81
2021/09/28 03:35:14;;;;;;;7.97;1.53;;;15.40;99.90;;;;;;5046158;28;20468;-82
2021/09/28 03:37:43;;;;;;;4.33;1.77;;;15.40;99.90;;;;;;5045531;28;20541;-82
2021/09/28 03:40:14;;;;;;;4.03;1.40;;;15.50;99.90;;;;;;5047127;28;20482;-82
2021/09/28 03:42:41;;;;;;;3.60;1.47;;;15.50;99.90;;;;;;5046535;28;20497;-82
2021/09/28 03:45:09;;;;;;;3.90;1.60;;;15.40;99.90;;;;;;5046646;28;20549;-82
2021/09/28 03:47:36;;;;;;;5.20;1.57;;;15.40;99.90;;;;;;5044890;28;20440;-82
2021/09/28 03:50:04;;;;;;;4.97;1.70;;;15.30;99.90;;;;;;5032292;28;20456;-82
2021/09/28 03:52:30;;;;;;;4.07;1.60;;;15.20;99.90;;;;;;5039513;28;20429;-81
2021/09/28 03:54:57;;;;;;;4.30;1.50;;;15.10;99.90;;;;;;5045463;28;20452;-81
2021/09/28 03:57:25;;;;;;;8.97;2.10;;;15.10;99.90;;;;;;5044944;28;20520;-81
2021/09/28 03:59:53;;;;;;;4.50;1.77;;;15.20;99.90;;;;;;5046330;28;20436;-81
2021/09/28 04:02:20;;;;;;;7.43;1.60;;;15.20;99.90;;;;;;5035683;28;20509;-81
2021/09/28 04:04:47;;;;;;;4.40;1.70;;;15.30;99.90;;;;;;5026040;28;20441;-81
2021/09/28 04:07:14;;;;;;;7.00;1.53;;;15.30;99.90;;;;;;5026153;28;20450;-81
2021/09/28 04:09:41;;;;;;;4.30;1.70;;;15.40;99.90;;;;;;5025240;28;20449;-81
2021/09/28 04:12:08;;;;;;;6.67;1.90;;;15.30;99.90;;;;;;5033866;28;20434;-81
2021/09/28 04:14:37;;;;;;;5.53;1.40;;;15.10;99.90;;;;;;5046783;28;20449;-81
2021/09/28 04:17:04;;;;;;;5.30;1.40;;;15.30;99.90;;;;;;5044671;28;20452;-81
2021/09/28 04:19:31;;;;;;;9.90;2.37;;;15.30;99.90;;;;;;5045715;28;20512;-81
2021/09/28 04:21:58;;;;;;;5.43;1.53;;;15.20;99.90;;;;;;5045403;28;20553;-82
2021/09/28 04:24:25;;;;;;;3.90;1.60;;;15.30;99.90;;;;;;5039535;28;20542;-82
2021/09/28 04:26:51;;;;;;;5.20;1.50;;;15.10;99.90;;;;;;5045106;28;20459;-82
2021/09/28 04:29:18;;;;;;;3.37;1.40;;;15.00;99.90;;;;;;5043818;28;20462;-82
2021/09/28 04:31:46;;;;;;;3.83;1.53;;;15.20;99.90;;;;;;5042061;28;20428;-82
2021/09/28 04:34:13;;;;;;;4.60;1.67;;;15.10;99.90;;;;;;5044244;28;20894;-82
2021/09/28 04:36:40;;;;;;;4.67;2.10;;;15.10;99.90;;;;;;5044030;28;20494;-81
2021/09/28 04:39:07;;;;;;;3.80;1.70;;;15.20;99.90;;;;;;5044675;28;20513;-82
2021/09/28 04:41:34;;;;;;;4.40;1.87;;;15.00;99.90;;;;;;5041511;28;20544;-82
2021/09/28 04:44:00;;;;;;;5.30;1.77;;;14.80;99.90;;;;;;5044324;28;20432;-82
2021/09/28 04:46:27;;;;;;;5.37;1.87;;;14.70;99.90;;;;;;5043719;28;20453;-82
2021/09/28 04:48:55;;;;;;;5.87;2.10;;;14.70;99.90;;;;;;5043880;28;20852;-82
2021/09/28 04:51:22;;;;;;;3.63;1.70;;;14.60;99.90;;;;;;5043093;28;20471;-81
2021/09/28 04:53:49;;;;;;;4.70;2.10;;;14.60;99.90;;;;;;5043448;28;20456;-81
2021/09/28 04:56:16;;;;;;;7.90;1.97;;;14.50;99.90;;;;;;5044260;28;20873;-82
2021/09/28 04:58:43;;;;;;;4.40;2.27;;;14.60;99.90;;;;;;5033348;28;20454;-81
2021/09/28 05:01:10;;;;;;;4.37;2.00;;;14.80;99.90;;;;;;5023689;28;20520;-81
2021/09/28 05:03:37;;;;;;;4.70;1.93;;;14.90;99.90;;;;;;5042646;28;20472;-81
2021/09/28 05:06:05;;;;;;;6.60;2.53;;;14.70;99.90;;;;;;5042302;28;20453;-80
2021/09/28 05:08:32;;;;;;;4.53;2.40;;;14.60;99.90;;;;;;5043273;28;20416;-79
2021/09/28 05:11:00;;;;;;;5.33;2.50;;;14.80;99.90;;;;;;5043664;28;20492;-85
2021/09/28 05:13:27;;;;;;;6.00;2.80;;;14.90;99.90;;;;;;5036102;28;20572;-81
2021/09/28 05:15:54;;;;;;;5.20;2.83;;;14.80;99.90;;;;;;5017781;28;20429;-82
2021/09/28 05:18:21;;;;;;;6.37;2.77;;;14.80;99.90;;;;;;5034759;28;20439;-82
2021/09/28 05:20:48;;;;;;;4.87;3.03;;;14.50;99.90;;;;;;5036050;28;20448;-78
2021/09/28 05:23:16;;;;;;;5.40;2.50;;;14.60;99.90;;;;;;5034384;28;20448;-82
2021/09/28 05:25:43;;;;;;;4.30;2.60;;;14.50;99.90;;;;;;5038292;28;20461;-82
2021/09/28 05:28:10;;;;;;;6.00;2.43;;;14.70;99.90;;;;;;5034149;28;20474;-81
2021/09/28 05:30:37;;;;;;;6.67;2.97;;;14.70;99.90;;;;;;5025143;28;20549;-83
2021/09/28 05:33:05;;;;;;;11.13;3.00;;;14.50;99.90;;;;;;5037281;28;20480;-84
2021/09/28 05:35:32;;;;;;;7.27;3.40;;;14.40;99.90;;;;;;5040068;28;20452;-81
2021/09/28 05:37:59;;;;;;;6.60;2.90;;;14.30;99.90;;;;;;5037082;28;20452;-83
2021/09/28 05:40:27;;;;;;;6.40;2.90;;;14.20;99.90;;;;;;5037834;28;20444;-83
2021/09/28 05:42:54;;;;;;;6.80;3.13;;;14.20;99.90;;;;;;5031560;28;20936;-84
2021/09/28 05:45:21;;;;;;;6.73;3.30;;;14.10;99.90;;;;;;5031591;28;20459;-82
2021/09/28 05:47:48;;;;;;;8.20;3.07;;;14.20;99.90;;;;;;5036769;28;20493;-83
2021/09/28 05:50:20;;;;;;;6.90;3.00;;;14.20;99.90;;;;;;5032103;23;20457;-79
2021/09/28 05:52:48;;;;;;;10.67;3.57;;;14.20;99.90;;;;;;5022770;28;20429;-82
2021/09/28 05:55:15;;;;;;;8.77;4.03;;;14.20;99.90;;;;;;5018359;28;20450;-81
2021/09/28 05:57:43;;;;;;;7.20;3.03;;;14.20;99.90;;;;;;5016154;28;20429;-80
2021/09/28 06:00:14;;;;;;;5.40;2.83;;;14.30;99.90;;;;;;5016025;28;20474;-80
2021/09/28 06:02:41;;;;;;;7.77;3.47;;;14.30;99.90;;;;;;5015982;28;20464;-80
2021/09/28 06:05:09;;;;;;;8.23;5.07;;;14.40;99.90;;;;;;5010040;28;20454;-80
2021/09/28 06:07:36;;;;;;;5.43;2.90;;;14.40;99.90;;;;;;5030567;28;20423;-78
2021/09/28 06:10:04;;;;;;;6.43;3.10;;;14.50;99.90;;;;;;5021855;28;20452;-81
2021/09/28 06:12:31;;;;;;;8.53;3.70;;;14.40;99.90;;;;;;5013676;28;20493;-81
2021/09/28 06:15:00;;;;;;;10.97;3.87;;;14.50;99.90;;;;;;5016405;28;20439;-81
2021/09/28 06:17:26;;;;;;;5.30;3.23;;;14.40;99.90;;;;;;5016888;28;20454;-80
2021/09/28 06:19:53;;;;;;;9.90;3.47;;;14.30;99.90;;;;;;5009809;28;20470;-81
2021/09/28 06:22:20;;;;;;;7.67;3.60;;;14.40;99.90;;;;;;5006117;28;20552;-81
2021/09/28 06:24:47;;;;;;;9.60;4.90;;;14.40;99.90;;;;;;5017954;28;20429;-81
2021/09/28 06:27:14;;;;;;;7.93;3.30;;;14.40;99.90;;;;;;5008394;28;20823;-82
2021/09/28 06:29:40;;;;;;;7.00;3.37;;;14.50;99.90;;;;;;5021711;28;20457;-79
2021/09/28 06:32:09;;;;;;;8.53;3.40;;;14.60;99.90;;;;;;5024367;28;20557;-79
2021/09/28 06:34:36;;;;;;;6.30;3.70;;;14.70;99.90;;;;;;5018868;28;20428;-87
2021/09/28 06:37:03;;;;;;;9.90;3.30;;;14.70;99.90;;;;;;5017658;28;21022;-84
2021/09/28 06:39:30;;;;;;;6.80;2.67;;;14.80;99.90;;;;;;5017488;28;20504;-79
2021/09/28 06:41:57;;;;;;;8.20;3.27;;;14.70;99.90;;;;;;5019244;28;20528;-80
2021/09/28 06:44:23;;;;;;;13.63;3.30;;;14.80;99.90;;;;;;5018410;28;20425;-80
2021/09/28 06:46:51;;;;;;;5.57;3.03;;;14.90;99.90;;;;;;5018411;28;20461;-79
2021/09/28 06:49:19;;;;;;;6.80;3.07;;;15.00;99.90;;;;;;5018880;28;20795;-79
2021/09/28 06:51:46;;;;;;;8.63;3.27;;;15.20;99.90;;;;;;5016780;28;20542;-80
2021/09/28 06:54:12;;;;;;;6.77;3.20;;;15.10;99.90;;;;;;5009977;28;20422;-80
2021/09/28 06:56:40;;;;;;;7.57;3.80;;;15.10;99.90;;;;;;5023587;28;20534;-79
2021/09/28 06:59:08;;;;;;;6.47;2.83;;;15.10;99.90;;;;;;5024291;28;20439;-78
2021/09/28 07:01:35;;;;;;;9.07;4.23;;;15.00;99.90;;;;;;5036055;28;20456;-81
2021/09/28 07:04:02;;;;;;;7.23;3.80;;;14.90;99.90;;;;;;5028316;28;20531;-78
2021/09/28 07:06:31;;;;;;;9.30;4.30;;;14.90;99.90;;;;;;5029143;28;20518;-78
2021/09/28 07:08:58;;;;;;;6.43;3.67;;;14.80;99.90;;;;;;5025124;28;20429;-78
2021/09/28 07:11:25;;;;;;;10.07;4.50;;;14.90;99.90;;;;;;5021370;28;20535;-79
2021/09/28 07:13:52;;;;;;;12.27;4.30;;;14.90;99.90;;;;;;5021354;28;20966;-79
2021/09/28 07:16:20;;;;;;;6.07;3.53;;;15.00;99.90;;;;;;5023123;28;20459;-80
2021/09/28 07:18:47;;;;;;;11.50;4.30;;;15.30;99.90;;;;;;5020104;28;20463;-80
2021/09/28 07:21:14;;;;;;;14.67;4.50;;;15.20;99.90;;;;;;5009108;28;20450;-79
2021/09/28 07:23:43;;;;;;;12.30;3.73;;;15.40;99.90;;;;;;5025050;28;20489;-80
2021/09/28 07:26:10;;;;;;;6.23;3.77;;;15.40;99.90;;;;;;5022206;28;20477;-80
2021/09/28 07:28:37;;;;;;;9.47;4.53;;;15.30;99.90;;;;;;5019239;28;20517;-80
2021/09/28 07:31:04;;;;;;;8.80;4.20;;;15.30;99.90;;;;;;5020689;28;20441;-80
2021/09/28 07:33:31;;;;;;;10.93;4.33;;;15.30;99.90;;;;;;5022747;28;20455;-80
2021/09/28 07:35:58;;;;;;;7.93;5.30;;;15.40;99.90;;;;;;5014202;28;20538;-79
2021/09/28 07:38:25;;;;;;;12.13;5.57;;;15.50;99.90;;;;;;5030489;28;20454;-80
2021/09/28 07:40:54;;;;;;;9.70;5.73;;;15.60;99.90;;;;;;5037657;28;20431;-80
2021/09/28 07:43:21;;;;;;;10.27;5.20;;;15.70;99.90;;;;;;5023584;28;20541;-80
2021/09/28 07:45:48;;;;;;;8.57;5.10;;;15.70;99.90;;;;;;5022297;28;20447;-80
2021/09/28 07:48:15;;;;;;;9.97;5.43;;;15.80;99.90;;;;;;5020991;28;20464;-80
2021/09/28 07:50:42;;;;;;;11.90;4.50;;;15.80;99.90;;;;;;5023455;28;20546;-80
2021/09/28 07:53:08;;;;;;;10.00;5.03;;;16.00;99.90;;;;;;5012221;28;20461;-80
2021/09/28 07:55:36;;;;;;;6.60;4.30;;;15.90;99.90;;;;;;5003741;28;20531;-80
2021/09/28 07:58:05;;;;;;;12.63;4.33;;;16.00;99.90;;;;;;5004403;28;20549;-80
2021/09/28 08:00:32;;;;;;;12.90;4.10;;;15.80;99.90;;;;;;5014726;28;20444;-81
2021/09/28 08:02:59;;;;;;;10.73;4.30;;;16.00;99.90;;;;;;5020411;28;20452;-81
2021/09/28 08:05:26;;;;;;;10.60;4.40;;;16.00;99.90;;;;;;5019960;28;20516;-79
2021/09/28 08:07:53;;;;;;;9.13;4.30;;;16.00;99.90;;;;;;5006231;28;20546;-80
2021/09/28 08:10:20;;;;;;;13.53;5.80;;;15.80;99.90;;;;;;5005270;28;20522;-79
2021/09/28 08:12:47;;;;;;;8.20;6.30;;;15.70;99.90;;;;;;5020162;28;20537;-80
2021/09/28 08:15:15;;;;;;;10.80;6.40;;;15.70;99.90;;;;;;5019842;28;20481;-80
2021/09/28 08:17:42;;;;;;;11.23;7.07;;;15.90;99.90;;;;;;5019370;28;20476;-79
2021/09/28 08:20:11;;;;;;;11.50;7.80;;;16.10;99.90;;;;;;5018951;28;20522;-80
2021/09/28 08:22:39;;;;;;;9.07;6.73;;;16.20;99.90;;;;;;5013977;28;20500;-81
2021/09/28 08:25:10;;;;;;;9.30;5.83;;;16.30;99.90;;;;;;5025032;28;20429;-80
2021/09/28 08:30:23;;;;;;;12.70;5.30;;;16.40;99.90;;;;;;5024098;28;20414;-79
2021/09/28 08:32:50;;;;;;;12.33;5.40;;;16.60;99.90;;;;;;5021981;28;20448;-80
2021/09/28 08:35:20;;;;;;;10.40;5.53;;;16.70;99.90;;;;;;5015783;28;20431;-80
2021/09/28 08:37:46;;;;;;;7.10;5.47;;;16.60;99.90;;;;;;5001345;28;20430;-80
2021/09/28 08:40:15;;;;;;;9.07;4.70;;;16.70;99.90;;;;;;4999176;28;21063;-81
2021/09/28 08:42:42;;;;;;;12.30;6.53;;;16.70;99.90;;;;;;5010024;28;20588;-80
2021/09/28 08:45:10;;;;;;;8.33;4.83;;;16.70;99.90;;;;;;5018702;28;20451;-81
2021/09/28 08:47:40;;;;;;;9.70;3.77;;;16.60;99.90;;;;;;5017699;28;20455;-80
2021/09/28 08:50:11;;;;;;;8.97;5.43;;;16.60;99.90;;;;;;5012756;28;20464;-80
2021/09/28 08:52:40;;;;;;;13.53;5.90;;;16.80;99.90;;;;;;5016650;28;20453;-80
2021/09/28 08:55:07;;;;;;;11.00;5.00;;;16.70;99.90;;;;;;5018963;28;20475;-80
2021/09/28 08:57:35;;;;;;;9.47;5.80;;;16.80;99.90;;;;;;5019439;28;20507;-80
2021/09/28 09:00:02;;;;;;;8.43;5.00;;;16.60;99.90;;;;;;5017472;28;20919;-81
2021/09/28 09:02:42;;;;;;;9.40;5.57;;;16.80;99.90;;;;;;5018045;28;20456;-81
2021/09/28 09:05:13;;;;;;;11.13;5.40;;;16.80;99.90;;;;;;5030528;28;20444;-78
2021/09/28 09:07:40;;;;;;;10.50;6.60;;;16.80;99.90;;;;;;5026514;28;20437;-81
2021/09/28 09:10:08;;;;;;;11.40;5.60;;;16.80;99.90;;;;;;5011229;28;20546;-81
2021/09/28 09:12:38;;;;;;;7.50;5.60;;;17.00;99.90;;;;;;5017620;28;20837;-81
2021/09/28 09:15:22;;;;;;;7.57;4.97;;;17.00;99.90;;;;;;5016995;28;20548;-81
2021/09/28 09:17:52;;;;;;;10.50;5.90;;;16.70;99.90;;;;;;5016589;28;20424;-81
2021/09/28 09:20:40;;;;;;;10.23;6.30;;;16.90;99.90;;;;;;5018109;28;20914;-80
2021/09/28 09:23:26;;;;;;;11.40;6.60;;;16.60;99.90;;;;;;5013742;28;20527;-81
2021/09/28 09:26:08;;;;;;;8.07;5.93;;;16.60;99.90;;;;;;5010460;28;20788;-81
2021/09/28 09:28:37;;;;;;;8.93;6.40;;;16.50;99.90;;;;;;5019627;28;20419;-81
2021/09/28 09:31:21;;;;;;;8.50;6.43;;;16.50;99.90;;;;;;5018136;28;20490;-81
2021/09/28 09:33:51;;;;;;;9.93;5.80;;;16.50;99.90;;;;;;5019221;28;20421;-81
2021/09/28 09:36:20;;;;;;;9.70;5.13;;;16.60;99.90;;;;;;5021978;28;20463;-80
2021/09/28 09:38:49;;;;;;;8.60;4.80;;;16.70;99.90;;;;;;5019775;28;20457;-80
2021/09/28 09:41:16;;;;;;;8.77;5.10;;;16.50;99.90;;;;;;5018553;28;20571;-80
2021/09/28 09:43:48;;;;;;;7.30;4.97;;;16.70;99.90;;;;;;5018605;28;20799;-80
2021/09/28 09:46:17;;;;;;;10.20;5.50;;;16.70;99.90;;;;;;5017378;28;20836;-80
2021/09/28 09:48:45;;;;;;;11.07;4.83;;;16.80;99.90;;;;;;5017289;28;20515;-80
2021/09/28 09:51:16;;;;;;;7.53;4.63;;;17.10;99.90;;;;;;5017999;28;20511;-80
2021/09/28 09:53:55;;;;;;;5.87;4.13;;;17.30;99.90;;;;;;5012021;28;20533;-80
2021/09/28 09:56:23;;;;;;;7.20;5.17;;;17.60;99.90;;;;;;4998143;28;20459;-79
2021/09/28 09:58:50;;;;;;;8.57;4.43;;;17.50;99.90;;;;;;4996835;28;20457;-80
2021/09/28 10:01:16;;;;;;;11.87;4.77;;;17.80;99.90;;;;;;5004320;28;20477;-80
2021/09/28 10:03:44;;;;;;;9.33;4.90;;;17.50;99.90;;;;;;5014882;28;20876;-79
2021/09/28 10:06:11;;;;;;;10.20;5.10;;;17.30;99.90;;;;;;5005458;28;20488;-80
2021/09/28 10:08:45;;;;;;;9.30;4.53;;;17.10;99.90;;;;;;5015835;28;20918;-79
2021/09/28 10:11:12;;;;;;;6.73;4.67;;;17.20;99.90;;;;;;5013788;28;20472;-80
2021/09/28 10:13:46;;;;;;;6.57;3.73;;;17.10;99.90;;;;;;5016691;28;20509;-79
2021/09/28 10:16:34;;;;;;;8.67;3.73;;;17.00;99.90;;;;;;5016005;28;20421;-80
2021/09/28 10:19:01;;;;;;;6.97;4.20;;;17.10;99.90;;;;;;5016663;28;20512;-79
2021/09/28 10:21:36;;;;;;;6.60;3.90;;;17.30;99.90;;;;;;5016158;28;20863;-79
2021/09/28 10:24:35;;;;;;;8.83;4.13;;;17.40;99.90;;;;;;5018562;28;20559;-79
2021/09/28 10:27:29;;;;;;;5.77;3.97;;;17.30;99.90;;;;;;5016594;28;20795;-80
2021/09/28 10:29:56;;;;;;;12.43;4.57;;;17.40;99.90;;;;;;5013615;28;20970;-80
2021/09/28 10:32:46;;;;;;;8.00;5.33;;;17.40;99.90;;;;;;5017828;28;20469;-81
2021/09/28 10:35:14;;;;;;;5.30;3.10;;;17.50;99.90;;;;;;5002034;28;20454;-80
2021/09/28 10:37:57;;;;;;;8.20;4.10;;;17.70;99.90;;;;;;5000789;28;20473;-82
2021/09/28 10:40:48;;;;;;;7.20;3.50;;;17.90;99.90;;;;;;4999998;28;20481;-80
2021/09/28 10:43:34;;;;;;;5.20;2.90;;;17.90;99.90;;;;;;5017898;28;20556;-82
2021/09/28 10:46:04;;;;;;;7.17;3.80;;;17.80;99.90;;;;;;5006123;28;20460;-80
2021/09/28 10:48:34;;;;;;;9.23;3.90;;;18.00;99.90;;;;;;5021895;28;20490;-80
2021/09/28 10:51:08;;;;;;;7.10;4.10;;;18.20;99.90;;;;;;5007892;28;20459;-81
2021/09/28 10:53:37;;;;;;;6.33;3.60;;;18.20;99.90;;;;;;5020322;28;20514;-80
2021/09/28 10:56:06;;;;;;;9.27;3.60;;;18.10;99.90;;;;;;5019540;28;20540;-81
2021/09/28 10:58:52;;;;;;;7.10;3.10;;;17.90;99.90;;;;;;5019973;28;20447;-80
2021/09/28 11:01:20;;;;;;;5.93;3.17;;;18.10;99.90;;;;;;5018654;28;20461;-81
2021/09/28 11:03:58;;;;;;;8.80;3.90;;;18.00;99.90;;;;;;5019023;28;21057;-81
2021/09/28 11:06:49;;;;;;;9.30;4.00;;;18.00;99.90;;;;;;5017982;28;20504;-79
2021/09/28 11:09:17;;;;;;;8.30;3.40;;;18.10;99.90;;;;;;5027847;28;20495;-79
2021/09/28 11:11:50;;;;;;;9.00;3.80;;;18.10;99.90;;;;;;5033018;28;20480;-78
2021/09/28 11:14:17;;;;;;;7.00;4.43;;;18.40;99.90;;;;;;5021764;28;20483;-80
2021/09/28 11:16:45;;;;;;;6.33;3.73;;;18.20;99.90;;;;;;5002869;28;20786;-80
2021/09/28 11:19:12;;;;;;;7.90;3.67;;;18.10;99.90;;;;;;5019588;28;20430;-80
2021/09/28 11:21:42;;;;;;;6.00;3.77;;;18.10;99.90;;;;;;5018721;28;20473;-81
2021/09/28 11:24:10;;;;;;;8.50;3.33;;;17.80;99.90;;;;;;5017898;28;20492;-79
2021/09/28 11:26:41;;;;;;;8.30;3.20;;;17.60;99.90;;;;;;5016381;28;20460;-81
2021/09/28 11:29:11;;;;;;;7.33;3.20;;;17.60;99.90;;;;;;5022558;28;20419;-79
2021/09/28 11:31:39;;;;;;;4.57;3.10;;;17.70;99.90;;;;;;5020290;28;20464;-81
2021/09/28 11:34:07;;;;;;;10.03;3.63;;;17.70;99.90;;;;;;5016558;28;20921;-81
2021/09/28 11:36:34;;;;;;;6.60;3.57;;;17.80;99.90;;;;;;5018764;28;20463;-81
2021/09/28 11:39:02;;;;;;;4.90;3.30;;;17.90;99.90;;;;;;5019725;28;20511;-81
2021/09/28 11:41:29;;;;;;;10.03;3.67;;;18.20;99.90;;;;;;5018385;28;20483;-80
2021/09/28 11:43:57;;;;;;;6.80;3.70;;;18.30;99.90;;;;;;4999914;28;20519;-78
2021/09/28 11:46:27;;;;;;;8.03;4.23;;;18.10;99.90;;;;;;5010041;28;20427;-79
2021/09/28 11:48:57;;;;;;;8.50;4.33;;;18.10;99.90;;;;;;5009578;28;20530;-80
2021/09/28 11:51:26;;;;;;;6.23;3.90;;;18.30;99.90;;;;;;5040437;23;20517;-85
2021/09/28 11:53:55;;;;;;;5.90;4.17;;;18.60;99.90;;;;;;5051980;28;20444;-85
2021/09/28 11:56:27;;;;;;;9.13;4.80;;;18.60;99.70;;;;;;5050657;28;20542;-85
2021/09/28 11:58:56;;;;;;;8.73;4.47;;;18.60;99.70;;;;;;5048841;28;20849;-84
2021/09/28 12:01:25;;;;;;;7.40;4.43;;;18.40;99.80;;;;;;5046383;28;20476;-84
2021/09/28 12:04:07;;;;;;;6.63;3.70;;;18.50;99.70;;;;;;5072089;28;20537;-84
2021/09/28 12:06:46;;;;;;;7.13;4.40;;;18.70;98.70;;;;;;5074961;28;20467;-86
2021/09/28 12:09:13;;;;;;;7.30;4.60;;;18.80;98.40;;;;;;5052018;28;20474;-86
2021/09/28 12:11:59;;;;;;;7.80;5.30;;;18.60;99.00;;;;;;5046203;28;20494;-85
2021/09/28 12:14:34;;;;;;;7.80;5.00;;;18.50;99.30;;;;;;5047966;28;20425;-86
2021/09/28 12:17:13;;;;;;;8.73;4.50;;;18.70;99.30;;;;;;5050756;28;20508;-85
2021/09/28 12:19:44;;;;;;;11.97;4.50;;;19.00;99.30;;;;;;5045191;28;20452;-83
2021/09/28 12:22:11;;;;;;;7.73;4.40;;;19.00;98.50;;;;;;5044970;28;20958;-83
2021/09/28 12:24:43;;;;;;;6.57;3.80;;;18.80;98.70;;;;;;5056231;28;20563;-85
2021/09/28 12:27:10;;;;;;;9.90;6.03;;;18.80;98.80;;;;;;5063124;28;20426;-85
2021/09/28 12:29:43;;;;;;;8.50;5.60;;;18.70;99.60;;;;;;5062974;28;20451;-85
2021/09/28 12:32:18;;;;;;;10.30;5.03;;;18.70;99.50;;;;;;5049423;28;20543;-84
2021/09/28 12:34:53;;;;;;;8.50;4.67;;;18.60;99.10;;;;;;5042629;28;20792;-83
2021/09/28 12:37:20;;;;;;;6.00;4.50;;;18.60;99.80;;;;;;5043809;28;20778;-83
2021/09/28 12:40:03;;;;;;;8.73;4.50;;;18.50;99.50;;;;;;5043580;28;20494;-84
2021/09/28 12:42:31;;;;;;;7.67;4.80;;;18.50;99.40;;;;;;5062674;28;20496;-83
2021/09/28 12:45:00;;;;;;;8.43;5.10;;;18.70;99.00;;;;;;5064321;28;20537;-84
2021/09/28 12:47:34;;;;;;;8.90;5.30;;;18.80;99.00;;;;;;5058943;28;20524;-84
2021/09/28 12:50:18;;;;;;;11.50;5.37;;;18.80;99.30;;;;;;5050612;28;20536;-86
2021/09/28 12:52:45;;;;;;;6.77;3.60;;;18.90;99.20;;;;;;5043969;28;20843;-84
2021/09/28 12:55:13;;;;;;;8.40;6.80;;;19.00;99.00;;;;;;5046517;28;20460;-84
2021/09/28 12:57:40;;;;;;;8.47;5.47;;;18.80;99.30;;;;;;5055924;28;20466;-84